sensor_id;sensor_type;location;lat;lon;timestamp;P1;durP1;ratioP1;P2;durP2;ratioP2
42420;SDS011;28063;48.140;11.588;2023-03-30T00:00:35;0.75;;;0.63;;
42420;SDS011;28063;48.140;11.588;2023-03-30T00:03:02;0.55;;;0.45;;
42420;SDS011;28063;48.140;11.588;2023-03-30T00:05:28;1.98;;;0.63;;
42420;SDS011;28063;48.140;11.588;2023-03-30T00:07:54;0.77;;;0.47;;
42420;SDS011;28063;48.140;11.588;2023-03-30T00:10:19;1.83;;;0.43;;
42420;SDS011;28063;48.140;11.588;2023-03-30T00:12:46;1.50;;;0.75;;
42420;SDS011;28063;48.140;11.588;2023-03-30T00:15:15;0.80;;;0.60;;
42420;SDS011;28063;48.140;11.588;2023-03-30T00:17:42;0.30;;;0.30;;
42420;SDS011;28063;48.140;11.588;2023-03-30T00:20:09;0.60;;;0.40;;
42420;SDS011;28063;48.140;11.588;2023-03-30T00:22:36;0.50;;;0.50;;
42420;SDS011;28063;48.140;11.588;2023-03-30T00:25:06;1.02;;;0.50;;
42420;SDS011;28063;48.140;11.588;2023-03-30T00:27:35;1.13;;;0.47;;
42420;SDS011;28063;48.140;11.588;2023-03-30T00:30:02;0.73;;;0.50;;
42420;SDS011;28063;48.140;11.588;2023-03-30T00:32:29;0.90;;;0.63;;
42420;SDS011;28063;48.140;11.588;2023-03-30T00:34:55;0.50;;;0.50;;
42420;SDS011;28063;48.140;11.588;2023-03-30T00:37:20;0.73;;;0.32;;
42420;SDS011;28063;48.140;11.588;2023-03-30T00:39:47;0.80;;;0.47;;
42420;SDS011;28063;48.140;11.588;2023-03-30T00:42:16;0.50;;;0.38;;
42420;SDS011;28063;48.140;11.588;2023-03-30T00:50:23;1.63;;;0.65;;
42420;SDS011;28063;48.140;11.588;2023-03-30T00:52:54;1.90;;;0.88;;
42420;SDS011;28063;48.140;11.588;2023-03-30T00:55:23;1.83;;;0.80;;
42420;SDS011;28063;48.140;11.588;2023-03-30T00:57:50;0.70;;;0.50;;
42420;SDS011;28063;48.140;11.588;2023-03-30T01:00:16;2.45;;;0.88;;
42420;SDS011;28063;48.140;11.588;2023-03-30T01:02:43;3.22;;;0.70;;
42420;SDS011;28063;48.140;11.588;2023-03-30T01:05:22;3.13;;;0.75;;
42420;SDS011;28063;48.140;11.588;2023-03-30T01:07:48;1.30;;;0.50;;
42420;SDS011;28063;48.140;11.588;2023-03-30T01:10:15;1.20;;;0.40;;
42420;SDS011;28063;48.140;11.588;2023-03-30T01:12:41;0.95;;;0.43;;
42420;SDS011;28063;48.140;11.588;2023-03-30T01:15:08;1.77;;;0.90;;
42420;SDS011;28063;48.140;11.588;2023-03-30T01:17:39;4.90;;;0.70;;
42420;SDS011;28063;48.140;11.588;2023-03-30T01:26:50;1.08;;;0.60;;
42420;SDS011;28063;48.140;11.588;2023-03-30T01:32:01;1.50;;;0.60;;
42420;SDS011;28063;48.140;11.588;2023-03-30T01:34:48;2.25;;;0.55;;
42420;SDS011;28063;48.140;11.588;2023-03-30T01:38:12;1.15;;;0.30;;
42420;SDS011;28063;48.140;11.588;2023-03-30T01:40:19;0.98;;;0.40;;
42420;SDS011;28063;48.140;11.588;2023-03-30T01:43:14;0.75;;;0.52;;
42420;SDS011;28063;48.140;11.588;2023-03-30T01:45:53;1.58;;;0.50;;
42420;SDS011;28063;48.140;11.588;2023-03-30T01:48:27;2.13;;;0.50;;
42420;SDS011;28063;48.140;11.588;2023-03-30T01:51:24;1.48;;;0.50;;
42420;SDS011;28063;48.140;11.588;2023-03-30T01:54:04;0.38;;;0.30;;
42420;SDS011;28063;48.140;11.588;2023-03-30T01:56:37;1.00;;;0.35;;
42420;SDS011;28063;48.140;11.588;2023-03-30T01:59:35;0.77;;;0.35;;
42420;SDS011;28063;48.140;11.588;2023-03-30T02:02:21;0.65;;;0.30;;
42420;SDS011;28063;48.140;11.588;2023-03-30T02:04:49;0.28;;;0.28;;
42420;SDS011;28063;48.140;11.588;2023-03-30T02:07:19;0.28;;;0.28;;
42420;SDS011;28063;48.140;11.588;2023-03-30T02:09:48;0.20;;;0.20;;
42420;SDS011;28063;48.140;11.588;2023-03-30T02:12:16;1.20;;;0.38;;
42420;SDS011;28063;48.140;11.588;2023-03-30T02:14:43;1.55;;;0.40;;
42420;SDS011;28063;48.140;11.588;2023-03-30T02:17:16;0.22;;;0.22;;
42420;SDS011;28063;48.140;11.588;2023-03-30T02:19:45;1.67;;;0.20;;
42420;SDS011;28063;48.140;11.588;2023-03-30T02:22:11;0.82;;;0.40;;
42420;SDS011;28063;48.140;11.588;2023-03-30T02:24:39;2.47;;;0.73;;
42420;SDS011;28063;48.140;11.588;2023-03-30T02:27:06;2.97;;;0.57;;
42420;SDS011;28063;48.140;11.588;2023-03-30T02:29:31;1.65;;;1.02;;
42420;SDS011;28063;48.140;11.588;2023-03-30T02:32:01;1.63;;;0.57;;
42420;SDS011;28063;48.140;11.588;2023-03-30T02:39:50;2.83;;;0.75;;
42420;SDS011;28063;48.140;11.588;2023-03-30T02:42:47;1.70;;;0.90;;
42420;SDS011;28063;48.140;11.588;2023-03-30T02:45:18;1.98;;;0.55;;
42420;SDS011;28063;48.140;11.588;2023-03-30T02:48:04;1.63;;;0.52;;
42420;SDS011;28063;48.140;11.588;2023-03-30T02:50:53;2.42;;;0.63;;
42420;SDS011;28063;48.140;11.588;2023-03-30T02:53:46;1.87;;;1.10;;
42420;SDS011;28063;48.140;11.588;2023-03-30T02:59:46;4.38;;;0.90;;
42420;SDS011;28063;48.140;11.588;2023-03-30T03:04:58;7.78;;;1.98;;
42420;SDS011;28063;48.140;11.588;2023-03-30T03:07:27;6.20;;;2.10;;
42420;SDS011;28063;48.140;11.588;2023-03-30T03:09:58;9.30;;;1.60;;
42420;SDS011;28063;48.140;11.588;2023-03-30T03:12:24;4.03;;;1.25;;
42420;SDS011;28063;48.140;11.588;2023-03-30T03:14:50;6.25;;;1.77;;
42420;SDS011;28063;48.140;11.588;2023-03-30T03:17:17;4.78;;;1.63;;
42420;SDS011;28063;48.140;11.588;2023-03-30T03:19:46;2.80;;;1.00;;
42420;SDS011;28063;48.140;11.588;2023-03-30T03:22:12;2.45;;;1.20;;
42420;SDS011;28063;48.140;11.588;2023-03-30T03:24:38;1.60;;;0.70;;
42420;SDS011;28063;48.140;11.588;2023-03-30T03:27:04;2.15;;;1.20;;
42420;SDS011;28063;48.140;11.588;2023-03-30T03:29:31;1.88;;;0.95;;
42420;SDS011;28063;48.140;11.588;2023-03-30T03:31:56;3.05;;;0.98;;
42420;SDS011;28063;48.140;11.588;2023-03-30T03:34:22;2.72;;;0.90;;
42420;SDS011;28063;48.140;11.588;2023-03-30T03:36:50;2.55;;;0.70;;
42420;SDS011;28063;48.140;11.588;2023-03-30T03:39:18;1.45;;;0.82;;
42420;SDS011;28063;48.140;11.588;2023-03-30T03:41:44;2.05;;;0.80;;
42420;SDS011;28063;48.140;11.588;2023-03-30T03:44:10;2.75;;;0.57;;
42420;SDS011;28063;48.140;11.588;2023-03-30T03:46:35;1.75;;;0.60;;
42420;SDS011;28063;48.140;11.588;2023-03-30T03:49:01;1.58;;;0.57;;
42420;SDS011;28063;48.140;11.588;2023-03-30T03:51:27;1.50;;;0.40;;
42420;SDS011;28063;48.140;11.588;2023-03-30T03:53:53;1.20;;;0.60;;
42420;SDS011;28063;48.140;11.588;2023-03-30T03:56:19;0.60;;;0.30;;
42420;SDS011;28063;48.140;11.588;2023-03-30T03:58:45;0.57;;;0.40;;
42420;SDS011;28063;48.140;11.588;2023-03-30T04:01:11;0.57;;;0.38;;
42420;SDS011;28063;48.140;11.588;2023-03-30T04:03:38;1.75;;;0.20;;
42420;SDS011;28063;48.140;11.588;2023-03-30T04:06:05;1.17;;;0.32;;
42420;SDS011;28063;48.140;11.588;2023-03-30T04:08:31;0.15;;;0.15;;
42420;SDS011;28063;48.140;11.588;2023-03-30T04:11:04;0.85;;;0.38;;
42420;SDS011;28063;48.140;11.588;2023-03-30T04:13:32;0.70;;;0.30;;
42420;SDS011;28063;48.140;11.588;2023-03-30T04:15:58;0.77;;;0.60;;
42420;SDS011;28063;48.140;11.588;2023-03-30T04:18:24;0.98;;;0.50;;
42420;SDS011;28063;48.140;11.588;2023-03-30T04:20:55;1.60;;;0.60;;
42420;SDS011;28063;48.140;11.588;2023-03-30T04:23:26;1.40;;;0.50;;
42420;SDS011;28063;48.140;11.588;2023-03-30T04:26:04;1.05;;;0.60;;
42420;SDS011;28063;48.140;11.588;2023-03-30T04:28:32;0.60;;;0.45;;
42420;SDS011;28063;48.140;11.588;2023-03-30T04:30:59;0.77;;;0.47;;
42420;SDS011;28063;48.140;11.588;2023-03-30T04:33:29;1.85;;;0.68;;
42420;SDS011;28063;48.140;11.588;2023-03-30T04:35:59;0.85;;;0.60;;
42420;SDS011;28063;48.140;11.588;2023-03-30T04:38:25;0.80;;;0.75;;
42420;SDS011;28063;48.140;11.588;2023-03-30T04:40:52;0.30;;;0.30;;
42420;SDS011;28063;48.140;11.588;2023-03-30T04:43:19;0.22;;;0.20;;
42420;SDS011;28063;48.140;11.588;2023-03-30T04:45:50;0.88;;;0.40;;
42420;SDS011;28063;48.140;11.588;2023-03-30T04:48:17;4.65;;;1.05;;
42420;SDS011;28063;48.140;11.588;2023-03-30T04:50:44;4.88;;;1.65;;
42420;SDS011;28063;48.140;11.588;2023-03-30T04:53:11;3.80;;;1.48;;
42420;SDS011;28063;48.140;11.588;2023-03-30T04:55:39;4.03;;;1.60;;
42420;SDS011;28063;48.140;11.588;2023-03-30T04:58:05;2.75;;;1.25;;
42420;SDS011;28063;48.140;11.588;2023-03-30T05:00:31;2.78;;;1.70;;
42420;SDS011;28063;48.140;11.588;2023-03-30T05:02:57;2.08;;;1.25;;
42420;SDS011;28063;48.140;11.588;2023-03-30T05:05:23;1.35;;;0.80;;
42420;SDS011;28063;48.140;11.588;2023-03-30T05:07:49;1.05;;;0.82;;
42420;SDS011;28063;48.140;11.588;2023-03-30T05:10:15;2.55;;;1.25;;
42420;SDS011;28063;48.140;11.588;2023-03-30T05:12:41;4.15;;;1.15;;
42420;SDS011;28063;48.140;11.588;2023-03-30T05:15:07;3.03;;;1.13;;
42420;SDS011;28063;48.140;11.588;2023-03-30T05:17:33;2.88;;;1.20;;
42420;SDS011;28063;48.140;11.588;2023-03-30T05:19:59;2.00;;;0.80;;
42420;SDS011;28063;48.140;11.588;2023-03-30T05:22:25;1.13;;;0.60;;
42420;SDS011;28063;48.140;11.588;2023-03-30T05:24:51;1.35;;;0.80;;
42420;SDS011;28063;48.140;11.588;2023-03-30T05:27:17;3.38;;;1.08;;
42420;SDS011;28063;48.140;11.588;2023-03-30T05:29:43;1.10;;;0.68;;
42420;SDS011;28063;48.140;11.588;2023-03-30T05:32:08;0.85;;;0.70;;
42420;SDS011;28063;48.140;11.588;2023-03-30T05:34:34;1.95;;;0.70;;
42420;SDS011;28063;48.140;11.588;2023-03-30T05:37:00;2.97;;;0.90;;
42420;SDS011;28063;48.140;11.588;2023-03-30T05:39:25;2.83;;;0.93;;
42420;SDS011;28063;48.140;11.588;2023-03-30T05:41:51;1.63;;;0.98;;
42420;SDS011;28063;48.140;11.588;2023-03-30T05:44:17;1.65;;;1.05;;
42420;SDS011;28063;48.140;11.588;2023-03-30T05:46:43;2.47;;;0.98;;
42420;SDS011;28063;48.140;11.588;2023-03-30T05:49:09;2.80;;;0.73;;
42420;SDS011;28063;48.140;11.588;2023-03-30T05:51:35;4.88;;;1.83;;
42420;SDS011;28063;48.140;11.588;2023-03-30T05:54:00;4.13;;;1.30;;
42420;SDS011;28063;48.140;11.588;2023-03-30T05:56:27;4.72;;;1.42;;
42420;SDS011;28063;48.140;11.588;2023-03-30T05:58:53;5.10;;;1.48;;
42420;SDS011;28063;48.140;11.588;2023-03-30T06:01:19;2.80;;;0.95;;
42420;SDS011;28063;48.140;11.588;2023-03-30T06:03:45;2.35;;;0.90;;
42420;SDS011;28063;48.140;11.588;2023-03-30T06:06:11;1.70;;;1.25;;
42420;SDS011;28063;48.140;11.588;2023-03-30T06:08:37;2.22;;;1.30;;
42420;SDS011;28063;48.140;11.588;2023-03-30T06:11:03;3.00;;;1.17;;
42420;SDS011;28063;48.140;11.588;2023-03-30T06:13:29;5.47;;;1.60;;
42420;SDS011;28063;48.140;11.588;2023-03-30T06:15:55;5.00;;;1.85;;
42420;SDS011;28063;48.140;11.588;2023-03-30T06:18:21;5.05;;;1.40;;
42420;SDS011;28063;48.140;11.588;2023-03-30T06:20:47;2.47;;;1.45;;
42420;SDS011;28063;48.140;11.588;2023-03-30T06:23:14;3.08;;;1.48;;
42420;SDS011;28063;48.140;11.588;2023-03-30T06:25:40;2.53;;;1.33;;
42420;SDS011;28063;48.140;11.588;2023-03-30T06:28:09;4.70;;;1.33;;
42420;SDS011;28063;48.140;11.588;2023-03-30T06:30:35;4.53;;;1.42;;
42420;SDS011;28063;48.140;11.588;2023-03-30T06:33:02;1.55;;;0.90;;
42420;SDS011;28063;48.140;11.588;2023-03-30T06:35:27;3.22;;;1.25;;
42420;SDS011;28063;48.140;11.588;2023-03-30T06:37:53;3.92;;;1.30;;
42420;SDS011;28063;48.140;11.588;2023-03-30T06:40:19;5.28;;;1.27;;
42420;SDS011;28063;48.140;11.588;2023-03-30T06:42:45;5.57;;;1.63;;
42420;SDS011;28063;48.140;11.588;2023-03-30T06:45:12;4.03;;;1.10;;
42420;SDS011;28063;48.140;11.588;2023-03-30T06:47:38;2.35;;;1.08;;
42420;SDS011;28063;48.140;11.588;2023-03-30T06:50:05;2.72;;;1.02;;
42420;SDS011;28063;48.140;11.588;2023-03-30T06:52:35;4.10;;;1.05;;
42420;SDS011;28063;48.140;11.588;2023-03-30T06:55:02;2.80;;;1.67;;
42420;SDS011;28063;48.140;11.588;2023-03-30T06:57:28;6.60;;;1.77;;
42420;SDS011;28063;48.140;11.588;2023-03-30T06:59:54;5.25;;;1.52;;
42420;SDS011;28063;48.140;11.588;2023-03-30T07:02:20;5.47;;;1.65;;
42420;SDS011;28063;48.140;11.588;2023-03-30T07:04:46;4.45;;;1.83;;
42420;SDS011;28063;48.140;11.588;2023-03-30T07:07:12;5.78;;;1.90;;
42420;SDS011;28063;48.140;11.588;2023-03-30T07:09:50;3.58;;;1.63;;
42420;SDS011;28063;48.140;11.588;2023-03-30T07:12:16;6.25;;;2.10;;
42420;SDS011;28063;48.140;11.588;2023-03-30T07:14:41;7.28;;;2.17;;
42420;SDS011;28063;48.140;11.588;2023-03-30T07:17:07;5.45;;;1.80;;
42420;SDS011;28063;48.140;11.588;2023-03-30T07:19:33;3.60;;;1.67;;
42420;SDS011;28063;48.140;11.588;2023-03-30T07:21:58;4.82;;;1.75;;
42420;SDS011;28063;48.140;11.588;2023-03-30T07:24:24;4.65;;;1.40;;
42420;SDS011;28063;48.140;11.588;2023-03-30T07:26:50;7.38;;;2.35;;
42420;SDS011;28063;48.140;11.588;2023-03-30T07:29:16;3.08;;;1.50;;
42420;SDS011;28063;48.140;11.588;2023-03-30T07:31:42;3.35;;;1.42;;
42420;SDS011;28063;48.140;11.588;2023-03-30T07:34:10;3.97;;;1.63;;
42420;SDS011;28063;48.140;11.588;2023-03-30T07:36:39;2.50;;;1.00;;
42420;SDS011;28063;48.140;11.588;2023-03-30T07:39:05;2.45;;;1.10;;
42420;SDS011;28063;48.140;11.588;2023-03-30T07:41:32;1.75;;;1.17;;
42420;SDS011;28063;48.140;11.588;2023-03-30T07:43:58;3.88;;;1.13;;
42420;SDS011;28063;48.140;11.588;2023-03-30T07:46:28;4.90;;;1.55;;
42420;SDS011;28063;48.140;11.588;2023-03-30T07:48:55;4.03;;;1.30;;
42420;SDS011;28063;48.140;11.588;2023-03-30T07:51:20;3.60;;;1.30;;
42420;SDS011;28063;48.140;11.588;2023-03-30T07:53:47;4.32;;;1.15;;
42420;SDS011;28063;48.140;11.588;2023-03-30T07:56:12;3.88;;;0.85;;
42420;SDS011;28063;48.140;11.588;2023-03-30T07:58:38;4.30;;;0.88;;
42420;SDS011;28063;48.140;11.588;2023-03-30T08:01:04;3.63;;;1.48;;
42420;SDS011;28063;48.140;11.588;2023-03-30T08:03:30;4.57;;;1.42;;
42420;SDS011;28063;48.140;11.588;2023-03-30T08:05:57;5.55;;;1.50;;
42420;SDS011;28063;48.140;11.588;2023-03-30T08:08:28;3.65;;;1.33;;
42420;SDS011;28063;48.140;11.588;2023-03-30T08:10:54;4.68;;;1.70;;
42420;SDS011;28063;48.140;11.588;2023-03-30T08:13:20;5.80;;;1.58;;
42420;SDS011;28063;48.140;11.588;2023-03-30T08:15:45;4.43;;;2.17;;
42420;SDS011;28063;48.140;11.588;2023-03-30T08:18:12;4.75;;;1.45;;
42420;SDS011;28063;48.140;11.588;2023-03-30T08:20:38;6.57;;;1.60;;
42420;SDS011;28063;48.140;11.588;2023-03-30T08:23:06;9.77;;;1.92;;
42420;SDS011;28063;48.140;11.588;2023-03-30T08:25:33;3.90;;;1.50;;
42420;SDS011;28063;48.140;11.588;2023-03-30T08:27:58;3.92;;;2.28;;
42420;SDS011;28063;48.140;11.588;2023-03-30T08:30:24;3.78;;;1.38;;
42420;SDS011;28063;48.140;11.588;2023-03-30T08:32:51;1.38;;;0.95;;
42420;SDS011;28063;48.140;11.588;2023-03-30T08:35:17;4.00;;;1.42;;
42420;SDS011;28063;48.140;11.588;2023-03-30T08:37:43;4.15;;;2.22;;
42420;SDS011;28063;48.140;11.588;2023-03-30T08:40:12;7.15;;;1.70;;
42420;SDS011;28063;48.140;11.588;2023-03-30T08:45:32;3.15;;;1.70;;
42420;SDS011;28063;48.140;11.588;2023-03-30T08:48:03;2.03;;;0.82;;
42420;SDS011;28063;48.140;11.588;2023-03-30T08:50:32;1.48;;;1.23;;
42420;SDS011;28063;48.140;11.588;2023-03-30T08:52:59;2.58;;;1.02;;
42420;SDS011;28063;48.140;11.588;2023-03-30T09:00:38;2.05;;;0.98;;
42420;SDS011;28063;48.140;11.588;2023-03-30T09:03:25;5.22;;;1.25;;
42420;SDS011;28063;48.140;11.588;2023-03-30T09:05:54;2.15;;;1.10;;
42420;SDS011;28063;48.140;11.588;2023-03-30T09:08:25;3.95;;;1.38;;
42420;SDS011;28063;48.140;11.588;2023-03-30T09:10:57;2.47;;;1.33;;
42420;SDS011;28063;48.140;11.588;2023-03-30T09:13:26;4.10;;;1.45;;
42420;SDS011;28063;48.140;11.588;2023-03-30T09:18:43;2.08;;;0.90;;
42420;SDS011;28063;48.140;11.588;2023-03-30T09:21:13;2.00;;;0.90;;
42420;SDS011;28063;48.140;11.588;2023-03-30T09:23:39;1.77;;;0.80;;
42420;SDS011;28063;48.140;11.588;2023-03-30T09:36:52;3.70;;;1.77;;
42420;SDS011;28063;48.140;11.588;2023-03-30T09:39:35;5.75;;;1.90;;
42420;SDS011;28063;48.140;11.588;2023-03-30T09:45:02;3.35;;;1.40;;
42420;SDS011;28063;48.140;11.588;2023-03-30T09:47:35;2.65;;;1.42;;
42420;SDS011;28063;48.140;11.588;2023-03-30T09:52:34;4.00;;;2.08;;
42420;SDS011;28063;48.140;11.588;2023-03-30T09:57:47;8.60;;;2.50;;
42420;SDS011;28063;48.140;11.588;2023-03-30T10:02:55;6.63;;;2.05;;
42420;SDS011;28063;48.140;11.588;2023-03-30T10:05:22;8.77;;;2.00;;
42420;SDS011;28063;48.140;11.588;2023-03-30T10:07:52;14.38;;;2.35;;
42420;SDS011;28063;48.140;11.588;2023-03-30T10:13:11;12.52;;;2.85;;
42420;SDS011;28063;48.140;11.588;2023-03-30T10:15:44;14.40;;;3.42;;
42420;SDS011;28063;48.140;11.588;2023-03-30T10:18:24;11.10;;;2.42;;
42420;SDS011;28063;48.140;11.588;2023-03-30T10:21:03;13.82;;;3.80;;
42420;SDS011;28063;48.140;11.588;2023-03-30T10:23:33;8.27;;;2.20;;
42420;SDS011;28063;48.140;11.588;2023-03-30T10:26:13;9.15;;;2.40;;
42420;SDS011;28063;48.140;11.588;2023-03-30T10:28:59;19.20;;;3.38;;
42420;SDS011;28063;48.140;11.588;2023-03-30T10:31:38;11.20;;;2.90;;
42420;SDS011;28063;48.140;11.588;2023-03-30T10:34:17;13.63;;;2.80;;
42420;SDS011;28063;48.140;11.588;2023-03-30T10:36:59;11.20;;;2.40;;
42420;SDS011;28063;48.140;11.588;2023-03-30T10:39:29;10.57;;;3.03;;
42420;SDS011;28063;48.140;11.588;2023-03-30T10:42:00;10.85;;;3.03;;
42420;SDS011;28063;48.140;11.588;2023-03-30T10:55:20;10.38;;;2.83;;
42420;SDS011;28063;48.140;11.588;2023-03-30T11:03:09;15.02;;;3.00;;
42420;SDS011;28063;48.140;11.588;2023-03-30T11:05:43;13.45;;;2.58;;
42420;SDS011;28063;48.140;11.588;2023-03-30T11:08:16;14.32;;;2.90;;
42420;SDS011;28063;48.140;11.588;2023-03-30T11:10:47;11.05;;;2.50;;
42420;SDS011;28063;48.140;11.588;2023-03-30T11:13:17;11.43;;;2.97;;
42420;SDS011;28063;48.140;11.588;2023-03-30T11:16:07;20.85;;;3.67;;
42420;SDS011;28063;48.140;11.588;2023-03-30T11:18:46;16.92;;;3.20;;
42420;SDS011;28063;48.140;11.588;2023-03-30T11:22:01;10.45;;;3.20;;
42420;SDS011;28063;48.140;11.588;2023-03-30T11:24:11;13.40;;;3.88;;
42420;SDS011;28063;48.140;11.588;2023-03-30T11:26:42;13.82;;;3.22;;
42420;SDS011;28063;48.140;11.588;2023-03-30T11:35:14;9.68;;;2.97;;
42420;SDS011;28063;48.140;11.588;2023-03-30T11:37:59;11.20;;;2.85;;
42420;SDS011;28063;48.140;11.588;2023-03-30T11:40:27;9.55;;;2.30;;
42420;SDS011;28063;48.140;11.588;2023-03-30T11:43:09;10.10;;;2.10;;
42420;SDS011;28063;48.140;11.588;2023-03-30T11:48:52;12.38;;;3.85;;
42420;SDS011;28063;48.140;11.588;2023-03-30T11:54:23;8.35;;;2.15;;
42420;SDS011;28063;48.140;11.588;2023-03-30T12:05:15;8.45;;;2.60;;
42420;SDS011;28063;48.140;11.588;2023-03-30T12:10:27;12.45;;;3.28;;
42420;SDS011;28063;48.140;11.588;2023-03-30T12:13:01;7.80;;;2.83;;
42420;SDS011;28063;48.140;11.588;2023-03-30T12:18:13;7.53;;;2.90;;
42420;SDS011;28063;48.140;11.588;2023-03-30T12:20:49;12.98;;;3.92;;
42420;SDS011;28063;48.140;11.588;2023-03-30T12:26:23;10.15;;;3.50;;
42420;SDS011;28063;48.140;11.588;2023-03-30T12:31:17;8.35;;;3.38;;
42420;SDS011;28063;48.140;11.588;2023-03-30T12:36:29;8.07;;;3.40;;
42420;SDS011;28063;48.140;11.588;2023-03-30T13:02:41;3.88;;;2.35;;
42420;SDS011;28063;48.140;11.588;2023-03-30T13:05:04;3.95;;;2.50;;
42420;SDS011;28063;48.140;11.588;2023-03-30T13:07:41;3.53;;;2.20;;
42420;SDS011;28063;48.140;11.588;2023-03-30T13:13:00;4.45;;;2.40;;
42420;SDS011;28063;48.140;11.588;2023-03-30T13:25:37;4.07;;;1.98;;
42420;SDS011;28063;48.140;11.588;2023-03-30T13:30:56;3.90;;;1.58;;
42420;SDS011;28063;48.140;11.588;2023-03-30T13:33:29;1.65;;;1.20;;
42420;SDS011;28063;48.140;11.588;2023-03-30T13:51:51;1.75;;;1.48;;
42420;SDS011;28063;48.140;11.588;2023-03-30T13:54:25;3.50;;;1.50;;
42420;SDS011;28063;48.140;11.588;2023-03-30T13:59:43;1.58;;;1.40;;
42420;SDS011;28063;48.140;11.588;2023-03-30T14:02:17;2.55;;;1.88;;
42420;SDS011;28063;48.140;11.588;2023-03-30T14:04:45;2.15;;;1.30;;
42420;SDS011;28063;48.140;11.588;2023-03-30T14:07:17;2.10;;;1.00;;
42420;SDS011;28063;48.140;11.588;2023-03-30T14:10:02;1.38;;;1.00;;
42420;SDS011;28063;48.140;11.588;2023-03-30T14:12:30;1.23;;;1.00;;
42420;SDS011;28063;48.140;11.588;2023-03-30T14:14:57;3.15;;;1.58;;
42420;SDS011;28063;48.140;11.588;2023-03-30T14:17:23;2.08;;;1.38;;
42420;SDS011;28063;48.140;11.588;2023-03-30T14:19:57;1.23;;;1.10;;
42420;SDS011;28063;48.140;11.588;2023-03-30T14:23:04;2.53;;;1.25;;
42420;SDS011;28063;48.140;11.588;2023-03-30T14:25:31;1.58;;;1.30;;
42420;SDS011;28063;48.140;11.588;2023-03-30T14:28:17;1.77;;;1.20;;
42420;SDS011;28063;48.140;11.588;2023-03-30T14:30:48;3.83;;;1.83;;
42420;SDS011;28063;48.140;11.588;2023-03-30T14:33:14;3.88;;;1.45;;
42420;SDS011;28063;48.140;11.588;2023-03-30T14:38:23;5.90;;;2.05;;
42420;SDS011;28063;48.140;11.588;2023-03-30T14:40:51;2.33;;;1.48;;
42420;SDS011;28063;48.140;11.588;2023-03-30T14:43:19;3.83;;;1.80;;
42420;SDS011;28063;48.140;11.588;2023-03-30T14:45:56;3.53;;;2.03;;
42420;SDS011;28063;48.140;11.588;2023-03-30T14:48:57;3.35;;;2.20;;
42420;SDS011;28063;48.140;11.588;2023-03-30T14:51:23;2.95;;;1.90;;
42420;SDS011;28063;48.140;11.588;2023-03-30T14:54:01;3.13;;;1.35;;
42420;SDS011;28063;48.140;11.588;2023-03-30T14:56:28;2.33;;;1.40;;
42420;SDS011;28063;48.140;11.588;2023-03-30T14:58:54;2.20;;;1.48;;
42420;SDS011;28063;48.140;11.588;2023-03-30T15:01:23;4.35;;;1.98;;
42420;SDS011;28063;48.140;11.588;2023-03-30T15:03:55;3.30;;;1.80;;
42420;SDS011;28063;48.140;11.588;2023-03-30T15:06:39;2.80;;;1.63;;
42420;SDS011;28063;48.140;11.588;2023-03-30T15:09:24;2.97;;;2.10;;
42420;SDS011;28063;48.140;11.588;2023-03-30T15:11:55;4.45;;;2.88;;
42420;SDS011;28063;48.140;11.588;2023-03-30T15:14:31;2.72;;;2.10;;
42420;SDS011;28063;48.140;11.588;2023-03-30T15:17:02;3.17;;;2.22;;
42420;SDS011;28063;48.140;11.588;2023-03-30T15:19:38;3.85;;;2.15;;
42420;SDS011;28063;48.140;11.588;2023-03-30T15:22:08;4.15;;;2.33;;
42420;SDS011;28063;48.140;11.588;2023-03-30T15:24:48;4.80;;;2.17;;
42420;SDS011;28063;48.140;11.588;2023-03-30T15:27:15;4.38;;;2.70;;
42420;SDS011;28063;48.140;11.588;2023-03-30T15:29:41;6.13;;;3.30;;
42420;SDS011;28063;48.140;11.588;2023-03-30T15:34:34;5.50;;;2.72;;
42420;SDS011;28063;48.140;11.588;2023-03-30T15:37:00;5.35;;;3.40;;
42420;SDS011;28063;48.140;11.588;2023-03-30T15:39:27;5.75;;;3.17;;
42420;SDS011;28063;48.140;11.588;2023-03-30T15:42:08;3.33;;;2.78;;
42420;SDS011;28063;48.140;11.588;2023-03-30T15:44:37;7.63;;;2.72;;
42420;SDS011;28063;48.140;11.588;2023-03-30T15:47:05;6.38;;;3.17;;
42420;SDS011;28063;48.140;11.588;2023-03-30T15:49:43;6.18;;;2.83;;
42420;SDS011;28063;48.140;11.588;2023-03-30T15:54:47;5.13;;;3.13;;
42420;SDS011;28063;48.140;11.588;2023-03-30T15:57:22;5.32;;;3.38;;
42420;SDS011;28063;48.140;11.588;2023-03-30T15:59:59;7.00;;;3.97;;
42420;SDS011;28063;48.140;11.588;2023-03-30T16:05:01;6.18;;;3.40;;
42420;SDS011;28063;48.140;11.588;2023-03-30T16:07:28;6.15;;;2.72;;
42420;SDS011;28063;48.140;11.588;2023-03-30T16:09:55;7.00;;;3.28;;
42420;SDS011;28063;48.140;11.588;2023-03-30T16:12:22;9.65;;;3.33;;
42420;SDS011;28063;48.140;11.588;2023-03-30T16:14:50;6.40;;;3.03;;
42420;SDS011;28063;48.140;11.588;2023-03-30T16:17:16;7.30;;;3.05;;
42420;SDS011;28063;48.140;11.588;2023-03-30T16:19:43;4.85;;;3.03;;
42420;SDS011;28063;48.140;11.588;2023-03-30T16:22:09;6.55;;;3.35;;
42420;SDS011;28063;48.140;11.588;2023-03-30T16:24:37;5.80;;;2.83;;
42420;SDS011;28063;48.140;11.588;2023-03-30T16:27:03;6.13;;;2.63;;
42420;SDS011;28063;48.140;11.588;2023-03-30T16:29:30;4.68;;;2.78;;
42420;SDS011;28063;48.140;11.588;2023-03-30T16:31:56;6.75;;;2.80;;
42420;SDS011;28063;48.140;11.588;2023-03-30T16:34:22;3.85;;;2.47;;
42420;SDS011;28063;48.140;11.588;2023-03-30T16:36:49;6.60;;;3.30;;
42420;SDS011;28063;48.140;11.588;2023-03-30T16:39:15;8.25;;;3.63;;
42420;SDS011;28063;48.140;11.588;2023-03-30T16:41:42;7.55;;;2.92;;
42420;SDS011;28063;48.140;11.588;2023-03-30T16:44:09;5.05;;;3.20;;
42420;SDS011;28063;48.140;11.588;2023-03-30T16:46:35;6.40;;;3.30;;
42420;SDS011;28063;48.140;11.588;2023-03-30T16:49:02;3.97;;;2.95;;
42420;SDS011;28063;48.140;11.588;2023-03-30T16:51:27;4.25;;;2.45;;
42420;SDS011;28063;48.140;11.588;2023-03-30T16:53:53;3.40;;;2.30;;
42420;SDS011;28063;48.140;11.588;2023-03-30T16:56:19;5.95;;;2.63;;
42420;SDS011;28063;48.140;11.588;2023-03-30T16:58:45;6.10;;;2.50;;
42420;SDS011;28063;48.140;11.588;2023-03-30T17:01:12;4.63;;;2.45;;
42420;SDS011;28063;48.140;11.588;2023-03-30T17:03:42;4.90;;;2.70;;
42420;SDS011;28063;48.140;11.588;2023-03-30T17:06:08;2.95;;;2.28;;
42420;SDS011;28063;48.140;11.588;2023-03-30T17:08:34;2.92;;;2.50;;
42420;SDS011;28063;48.140;11.588;2023-03-30T17:11:00;3.30;;;2.08;;
42420;SDS011;28063;48.140;11.588;2023-03-30T17:13:31;3.83;;;2.22;;
42420;SDS011;28063;48.140;11.588;2023-03-30T17:15:57;5.30;;;2.58;;
42420;SDS011;28063;48.140;11.588;2023-03-30T17:18:25;5.18;;;2.45;;
42420;SDS011;28063;48.140;11.588;2023-03-30T17:20:52;5.68;;;2.67;;
42420;SDS011;28063;48.140;11.588;2023-03-30T17:23:19;7.50;;;2.63;;
42420;SDS011;28063;48.140;11.588;2023-03-30T17:25:46;6.78;;;3.33;;
42420;SDS011;28063;48.140;11.588;2023-03-30T17:30:46;4.47;;;2.85;;
42420;SDS011;28063;48.140;11.588;2023-03-30T17:33:12;3.63;;;2.53;;
42420;SDS011;28063;48.140;11.588;2023-03-30T17:35:38;3.30;;;2.85;;
42420;SDS011;28063;48.140;11.588;2023-03-30T17:38:05;6.43;;;3.70;;
42420;SDS011;28063;48.140;11.588;2023-03-30T17:40:35;6.50;;;2.63;;
42420;SDS011;28063;48.140;11.588;2023-03-30T17:43:07;3.58;;;2.33;;
42420;SDS011;28063;48.140;11.588;2023-03-30T17:45:34;5.57;;;2.83;;
42420;SDS011;28063;48.140;11.588;2023-03-30T17:48:01;4.93;;;3.10;;
42420;SDS011;28063;48.140;11.588;2023-03-30T17:50:33;4.28;;;2.30;;